createdAt,value
2019-03-31T00:00:08.840Z,98507.00
2019-03-31T00:02:38.127Z,98508.00
2019-03-31T00:05:07.465Z,98514.00
2019-03-31T00:07:36.739Z,98511.00
2019-03-31T00:10:09.175Z,98503.00
2019-03-31T00:12:38.719Z,98510.00
2019-03-31T00:15:08.732Z,98500.00
2019-03-31T00:17:38.044Z,98507.00
2019-03-31T00:20:07.747Z,98506.00
2019-03-31T00:22:37.031Z,98505.00
2019-03-31T00:25:07.234Z,98502.00
2019-03-31T00:27:36.506Z,98507.00
2019-03-31T00:30:06.617Z,98502.00
2019-03-31T00:32:35.894Z,98499.00
2019-03-31T00:35:05.580Z,98504.00
2019-03-31T00:37:34.863Z,98499.00
2019-03-31T00:40:08.087Z,98498.00
2019-03-31T00:42:37.373Z,98495.00
2019-03-31T00:45:10.158Z,98498.00
2019-03-31T00:47:39.443Z,98502.00
2019-03-31T00:50:09.156Z,98499.00
2019-03-31T00:52:38.437Z,98489.00
2019-03-31T00:55:07.853Z,98495.00
2019-03-31T00:57:37.133Z,98497.00
2019-03-31T01:00:10.985Z,98498.00
2019-03-31T01:02:40.258Z,98501.00
2019-03-31T01:05:09.532Z,98492.00
2019-03-31T01:07:38.951Z,98490.00
2019-03-31T01:10:08.907Z,98495.00
2019-03-31T01:12:38.526Z,98490.00
2019-03-31T01:15:11.706Z,98492.00
2019-03-31T01:17:41.318Z,98490.00
2019-03-31T01:20:10.650Z,98486.00
2019-03-31T01:22:39.935Z,98489.00
2019-03-31T01:25:09.516Z,98478.00
2019-03-31T01:27:38.890Z,98485.00
2019-03-31T01:30:10.407Z,98491.00
2019-03-31T01:32:39.694Z,98486.00
2019-03-31T01:35:10.573Z,98495.00
2019-03-31T01:37:40.025Z,98483.00
2019-03-31T01:40:09.637Z,98487.00
2019-03-31T01:42:38.923Z,98494.00
2019-03-31T01:45:09.150Z,98489.00
2019-03-31T01:47:38.492Z,98486.00
2019-03-31T01:50:12.289Z,98486.00
2019-03-31T01:52:41.563Z,98479.00
2019-03-31T01:55:11.593Z,98486.00
2019-03-31T01:57:41.183Z,98492.00
2019-03-31T02:00:12.599Z,98490.00
2019-03-31T02:02:42.144Z,98489.00
2019-03-31T02:05:11.565Z,98486.00
2019-03-31T02:07:40.830Z,98483.00
2019-03-31T02:10:10.107Z,98483.00
2019-03-31T02:12:39.378Z,98478.00
2019-03-31T02:15:09.048Z,98489.00
2019-03-31T02:17:38.312Z,98488.00
2019-03-31T02:20:08.574Z,98480.00
2019-03-31T02:22:37.843Z,98483.00
2019-03-31T02:25:07.463Z,98479.00
2019-03-31T02:27:36.987Z,98485.00
2019-03-31T02:30:08.508Z,98479.00
2019-03-31T02:32:38.044Z,98480.00
2019-03-31T02:35:07.546Z,98484.00
2019-03-31T02:37:37.166Z,98484.00
2019-03-31T02:40:07.479Z,98480.00
2019-03-31T02:42:36.766Z,98475.00
2019-03-31T02:45:08.158Z,98477.00
2019-03-31T02:47:37.421Z,98475.00
2019-03-31T02:50:07.973Z,98483.00
2019-03-31T02:52:37.228Z,98484.00
2019-03-31T02:55:07.345Z,98479.00
2019-03-31T02:57:37.148Z,98476.00
2019-03-31T03:00:08.133Z,98478.00
2019-03-31T03:02:41.901Z,98481.00
2019-03-31T03:05:19.814Z,98476.00
2019-03-31T03:07:44.573Z,98483.00
2019-03-31T03:10:14.013Z,98477.00
2019-03-31T03:12:43.929Z,98483.00
2019-03-31T03:15:17.914Z,98483.00
2019-03-31T03:17:47.179Z,98479.00
2019-03-31T03:20:16.455Z,98489.00
2019-03-31T03:22:45.725Z,98478.00
2019-03-31T03:25:15.069Z,98477.00
2019-03-31T03:27:44.333Z,98477.00
2019-03-31T03:30:13.621Z,98473.00
2019-03-31T03:33:10.988Z,98476.00
2019-03-31T03:35:13.886Z,98479.00
2019-03-31T03:37:43.142Z,98472.00
2019-03-31T03:40:12.413Z,98472.00
2019-03-31T03:42:41.680Z,98463.00
2019-03-31T03:45:11.231Z,98465.00
2019-03-31T03:47:40.491Z,98464.00
2019-03-31T03:50:09.923Z,98466.00
2019-03-31T03:52:39.192Z,98459.00
2019-03-31T03:55:08.624Z,98461.00
2019-03-31T03:57:37.880Z,98459.00
2019-03-31T04:00:08.094Z,98463.00
2019-03-31T04:02:37.364Z,98460.00
2019-03-31T04:05:07.180Z,98468.00
2019-03-31T04:07:36.448Z,98463.00
2019-03-31T04:10:10.439Z,98455.00
2019-03-31T04:12:39.951Z,98458.00
2019-03-31T04:15:09.566Z,98464.00
2019-03-31T04:17:38.911Z,98464.00
2019-03-31T04:20:08.188Z,98462.00
2019-03-31T04:22:37.455Z,98468.00
2019-03-31T04:25:06.732Z,98463.00
2019-03-31T04:27:35.994Z,98462.00
2019-03-31T04:30:05.785Z,98465.00
2019-03-31T04:32:38.725Z,98463.00
2019-03-31T04:35:06.122Z,98458.00
2019-03-31T04:37:35.381Z,98458.00
2019-03-31T04:40:06.372Z,98460.00
2019-03-31T04:42:35.630Z,98464.00
2019-03-31T04:45:06.641Z,98456.00
2019-03-31T04:47:35.910Z,98464.00
2019-03-31T04:50:05.783Z,98468.00
2019-03-31T04:52:35.318Z,98459.00
2019-03-31T04:55:06.092Z,98469.00
2019-03-31T04:57:35.362Z,98456.00
2019-03-31T05:00:06.166Z,98461.00
2019-03-31T05:02:35.440Z,98457.00
2019-03-31T05:05:05.043Z,98462.00
2019-03-31T05:07:34.322Z,98462.00
2019-03-31T05:10:05.698Z,98454.00
2019-03-31T05:12:34.979Z,98457.00
2019-03-31T05:15:04.984Z,98464.00
2019-03-31T05:17:35.909Z,98468.00
2019-03-31T05:20:06.631Z,98462.00
2019-03-31T05:22:35.911Z,98467.00
2019-03-31T05:25:06.714Z,98469.00
2019-03-31T05:27:35.986Z,98473.00
2019-03-31T05:30:07.087Z,98477.00
2019-03-31T05:32:36.358Z,98479.00
2019-03-31T05:35:06.460Z,98480.00
2019-03-31T05:37:49.982Z,98479.00
2019-03-31T05:40:06.793Z,98479.00
2019-03-31T05:42:36.071Z,98471.00
2019-03-31T05:45:07.075Z,98477.00
2019-03-31T05:47:36.353Z,98481.00
2019-03-31T05:50:07.155Z,98483.00
2019-03-31T05:52:36.443Z,98477.00
2019-03-31T05:55:07.051Z,98480.00
2019-03-31T05:57:36.322Z,98480.00
2019-03-31T06:00:07.971Z,98487.00
2019-03-31T06:02:37.242Z,98484.00
2019-03-31T06:05:07.748Z,98481.00
2019-03-31T06:07:37.026Z,98484.00
2019-03-31T06:10:07.560Z,98483.00
2019-03-31T06:12:36.834Z,98485.00
2019-03-31T06:15:06.941Z,98487.00
2019-03-31T06:17:36.220Z,98496.00
2019-03-31T06:20:07.023Z,98498.00
2019-03-31T06:22:36.299Z,98495.00
2019-03-31T06:25:07.377Z,98491.00
2019-03-31T06:27:36.653Z,98496.00
2019-03-31T06:30:07.530Z,98497.00
2019-03-31T06:32:36.807Z,98488.00
2019-03-31T06:35:06.913Z,98487.00
2019-03-31T06:37:36.193Z,98487.00
2019-03-31T06:40:06.760Z,98495.00
2019-03-31T06:42:36.383Z,98497.00
2019-03-31T06:45:07.427Z,98496.00
2019-03-31T06:47:36.718Z,98496.00
2019-03-31T06:50:09.125Z,98496.00
2019-03-31T06:52:38.409Z,98503.00
2019-03-31T06:55:08.621Z,98498.00
2019-03-31T06:57:37.900Z,98500.00
2019-03-31T07:00:08.579Z,98500.00
2019-03-31T07:02:37.856Z,98505.00
2019-03-31T07:05:08.335Z,98509.00
2019-03-31T07:07:37.618Z,98507.00
2019-03-31T07:10:08.404Z,98507.00
2019-03-31T07:12:37.775Z,98515.00
2019-03-31T07:15:08.883Z,98504.00
2019-03-31T07:17:38.541Z,98501.00
2019-03-31T07:20:10.754Z,98506.00
2019-03-31T07:22:40.040Z,98506.00
2019-03-31T07:25:11.822Z,98512.00
2019-03-31T07:27:41.605Z,98502.00
2019-03-31T07:30:19.657Z,98510.00
2019-03-31T07:32:48.927Z,98515.00
2019-03-31T07:35:19.095Z,98503.00
2019-03-31T07:37:48.489Z,98505.00
2019-03-31T07:40:22.736Z,98514.00
2019-03-31T07:42:51.977Z,98511.00
2019-03-31T07:45:21.521Z,98510.00
2019-03-31T07:47:50.801Z,98517.00
2019-03-31T07:50:20.776Z,98512.00
2019-03-31T07:52:50.065Z,98512.00
2019-03-31T07:55:19.710Z,98508.00
2019-03-31T07:57:49.024Z,98516.00
2019-03-31T08:00:21.961Z,98516.00
2019-03-31T08:02:51.246Z,98510.00
2019-03-31T08:05:32.425Z,98513.00
2019-03-31T08:07:51.601Z,98511.00
2019-03-31T08:10:21.384Z,98512.00
2019-03-31T08:12:50.667Z,98514.00
2019-03-31T08:15:19.943Z,98524.00
2019-03-31T08:17:49.229Z,98526.00
2019-03-31T08:20:22.684Z,98511.00
2019-03-31T08:22:51.970Z,98510.00
2019-03-31T08:25:21.315Z,98518.00
2019-03-31T08:27:50.592Z,98513.00
2019-03-31T08:30:20.189Z,98517.00
2019-03-31T08:32:49.741Z,98516.00
2019-03-31T08:35:19.307Z,98511.00
2019-03-31T08:37:48.575Z,98509.00
2019-03-31T08:40:19.000Z,98509.00
2019-03-31T08:42:48.281Z,98508.00
2019-03-31T08:45:17.635Z,98506.00
2019-03-31T08:47:47.287Z,98510.00
2019-03-31T08:50:17.013Z,98502.00
2019-03-31T08:52:46.602Z,98502.00
2019-03-31T08:55:16.129Z,98508.00
2019-03-31T08:57:45.411Z,98505.00
2019-03-31T09:00:16.545Z,98502.00
2019-03-31T09:02:46.156Z,98501.00
2019-03-31T09:05:15.512Z,98509.00
2019-03-31T09:07:45.067Z,98506.00
2019-03-31T09:10:14.565Z,98495.00
2019-03-31T09:12:43.838Z,98500.00
2019-03-31T09:15:13.766Z,98499.00
2019-03-31T09:17:43.039Z,98500.00
2019-03-31T09:20:12.736Z,98491.00
2019-03-31T09:22:42.001Z,98498.00
2019-03-31T09:25:11.422Z,98497.00
2019-03-31T09:27:40.701Z,98495.00
2019-03-31T09:30:12.028Z,98491.00
2019-03-31T09:32:41.369Z,98492.00
2019-03-31T09:35:11.774Z,98493.00
2019-03-31T09:37:41.047Z,98489.00
2019-03-31T09:40:14.138Z,98490.00
2019-03-31T09:42:43.409Z,98491.00
2019-03-31T09:45:14.532Z,98478.00
2019-03-31T09:47:43.805Z,98491.00
2019-03-31T09:50:17.297Z,98487.00
2019-03-31T09:52:46.357Z,98480.00
2019-03-31T09:55:17.177Z,98481.00
2019-03-31T09:57:46.455Z,98480.00
2019-03-31T10:00:22.852Z,98471.00
2019-03-31T10:02:52.120Z,98476.00
2019-03-31T10:05:21.406Z,98473.00
2019-03-31T10:07:50.676Z,98469.00
2019-03-31T10:10:32.034Z,98466.00
2019-03-31T10:13:01.831Z,98468.00
2019-03-31T10:15:31.117Z,98456.00
2019-03-31T10:18:00.388Z,98458.00
2019-03-31T10:20:31.414Z,98462.00
2019-03-31T10:23:01.054Z,98461.00
2019-03-31T10:25:30.329Z,98454.00
2019-03-31T10:27:59.602Z,98454.00
2019-03-31T10:30:34.383Z,98455.00
2019-03-31T10:33:04.360Z,98449.00
2019-03-31T10:35:33.899Z,98453.00
2019-03-31T10:38:04.138Z,98444.00
2019-03-31T10:40:33.426Z,98439.00
2019-03-31T10:43:02.705Z,98440.00
2019-03-31T10:45:32.325Z,98444.00
2019-03-31T10:48:01.600Z,98442.00
2019-03-31T10:50:30.879Z,98446.00
2019-03-31T10:53:00.161Z,98440.00
2019-03-31T10:55:29.906Z,98433.00
2019-03-31T10:57:59.650Z,98434.00
2019-03-31T11:00:37.346Z,98432.00
2019-03-31T11:03:07.825Z,98428.00
2019-03-31T11:05:37.345Z,98435.00
2019-03-31T11:08:06.784Z,98431.00
2019-03-31T11:10:36.311Z,98442.00
2019-03-31T11:13:05.718Z,98431.00
2019-03-31T11:15:35.500Z,98434.00
2019-03-31T11:18:04.839Z,98427.00
2019-03-31T11:20:34.422Z,98434.00
2019-03-31T11:23:08.389Z,98425.00
2019-03-31T11:25:37.672Z,98431.00
2019-03-31T11:28:06.940Z,98430.00
2019-03-31T11:30:36.231Z,98427.00
2019-03-31T11:33:07.473Z,98425.00
2019-03-31T11:35:36.522Z,98428.00
2019-03-31T11:38:05.793Z,98421.00
2019-03-31T11:40:35.080Z,98417.00
2019-03-31T11:43:04.350Z,98411.00
2019-03-31T11:45:33.638Z,98414.00
2019-03-31T11:48:02.904Z,98406.00
2019-03-31T11:50:32.467Z,98406.00
2019-03-31T11:53:01.752Z,98408.00
2019-03-31T11:55:31.038Z,98400.00
2019-03-31T11:58:00.315Z,98403.00
2019-03-31T12:00:31.510Z,98398.00
2019-03-31T12:03:00.786Z,98388.00
2019-03-31T12:05:30.056Z,98384.00
2019-03-31T12:07:59.342Z,98387.00
2019-03-31T12:10:28.640Z,98386.00
2019-03-31T12:12:57.920Z,98383.00
2019-03-31T12:15:27.198Z,98387.00
2019-03-31T12:17:56.476Z,98385.00
2019-03-31T12:20:25.747Z,98378.00
2019-03-31T12:22:55.338Z,98378.00
2019-03-31T12:25:24.603Z,98378.00
2019-03-31T12:27:53.883Z,98369.00
2019-03-31T12:30:29.583Z,98373.00
2019-03-31T12:32:59.107Z,98368.00
2019-03-31T12:35:28.376Z,98374.00
2019-03-31T12:37:57.975Z,98375.00
2019-03-31T12:40:33.234Z,98364.00
2019-03-31T12:43:02.651Z,98363.00
2019-03-31T12:45:32.282Z,98358.00
2019-03-31T12:48:01.940Z,98354.00
2019-03-31T12:50:31.277Z,98353.00
2019-03-31T12:53:00.552Z,98351.00
2019-03-31T12:55:29.824Z,98348.00
2019-03-31T12:57:59.444Z,98348.00
2019-03-31T13:00:29.062Z,98352.00
2019-03-31T13:02:58.337Z,98344.00
2019-03-31T13:05:27.628Z,98333.00
2019-03-31T13:07:57.106Z,98338.00
2019-03-31T13:10:26.766Z,98336.00
2019-03-31T13:12:56.211Z,98335.00
2019-03-31T13:15:25.773Z,98343.00
2019-03-31T13:17:55.045Z,98337.00
2019-03-31T13:20:24.329Z,98338.00
2019-03-31T13:22:53.883Z,98327.00
2019-03-31T13:25:23.150Z,98336.00
2019-03-31T13:27:52.425Z,98341.00
2019-03-31T13:30:22.143Z,98329.00
2019-03-31T13:32:51.479Z,98335.00
2019-03-31T13:35:21.000Z,98323.00
2019-03-31T13:37:50.281Z,98324.00
2019-03-31T13:40:19.547Z,98309.00
2019-03-31T13:42:48.824Z,98312.00
2019-03-31T13:45:18.610Z,98313.00
2019-03-31T13:47:47.882Z,98317.00
2019-03-31T13:50:17.387Z,98310.00
2019-03-31T13:52:46.922Z,98307.00
2019-03-31T13:55:16.531Z,98306.00
2019-03-31T13:57:47.528Z,98300.00
2019-03-31T14:00:37.793Z,98306.00
2019-03-31T14:03:07.370Z,98300.00
2019-03-31T14:05:36.673Z,98290.00
2019-03-31T14:08:06.390Z,98290.00
2019-03-31T14:10:35.988Z,98288.00
2019-03-31T14:13:05.545Z,98273.00
2019-03-31T14:15:34.822Z,98287.00
2019-03-31T14:18:04.083Z,98288.00
2019-03-31T14:20:33.357Z,98287.00
2019-03-31T14:23:02.623Z,98287.00
2019-03-31T14:25:32.200Z,98285.00
2019-03-31T14:28:01.479Z,98274.00
2019-03-31T14:30:30.742Z,98282.00
2019-03-31T14:33:00.026Z,98284.00
2019-03-31T14:35:29.606Z,98282.00
2019-03-31T14:37:58.877Z,98282.00
2019-03-31T14:40:28.141Z,98279.00
2019-03-31T14:42:57.419Z,98270.00
2019-03-31T14:45:32.951Z,98261.00
2019-03-31T14:48:02.668Z,98264.00
2019-03-31T14:50:36.932Z,98255.00
2019-03-31T14:53:06.518Z,98254.00
2019-03-31T14:55:36.171Z,98251.00
2019-03-31T14:58:07.960Z,98257.00
2019-03-31T15:00:36.507Z,98248.00
2019-03-31T15:03:05.850Z,98243.00
2019-03-31T15:05:35.527Z,98247.00
2019-03-31T15:08:05.060Z,98249.00
2019-03-31T15:10:34.345Z,98248.00
2019-03-31T15:13:03.841Z,98247.00
2019-03-31T15:15:33.119Z,98256.00
2019-03-31T15:18:02.390Z,98251.00
2019-03-31T15:20:31.971Z,98254.00
2019-03-31T15:23:01.238Z,98249.00
2019-03-31T15:25:30.509Z,98252.00
2019-03-31T15:27:59.773Z,98250.00
2019-03-31T15:30:29.051Z,98248.00
2019-03-31T15:32:58.319Z,98251.00
2019-03-31T15:35:27.601Z,98249.00
2019-03-31T15:37:57.671Z,98249.00
2019-03-31T15:40:26.950Z,98244.00
2019-03-31T15:42:56.216Z,98238.00
2019-03-31T15:45:25.492Z,98236.00
2019-03-31T15:47:54.759Z,98240.00
2019-03-31T15:50:24.047Z,98246.00
2019-03-31T15:52:53.311Z,98235.00
2019-03-31T15:55:22.617Z,98242.00
2019-03-31T15:57:51.853Z,98245.00
2019-03-31T16:00:21.133Z,98251.00
2019-03-31T16:02:50.396Z,98247.00
2019-03-31T16:05:19.673Z,98243.00
2019-03-31T16:07:49.102Z,98244.00
2019-03-31T16:10:18.685Z,98241.00
2019-03-31T16:12:47.954Z,98248.00
2019-03-31T16:15:17.462Z,98249.00
2019-03-31T16:17:46.729Z,98244.00
2019-03-31T16:20:16.287Z,98244.00
2019-03-31T16:22:45.556Z,98243.00
2019-03-31T16:25:31.835Z,98249.00
2019-03-31T16:28:01.406Z,98245.00
2019-03-31T16:30:31.628Z,98246.00
2019-03-31T16:33:00.895Z,98242.00
2019-03-31T16:35:30.434Z,98242.00
2019-03-31T16:37:59.697Z,98248.00
2019-03-31T16:40:28.974Z,98248.00
2019-03-31T16:42:58.238Z,98254.00
2019-03-31T16:45:27.841Z,98244.00
2019-03-31T16:47:57.109Z,98249.00
2019-03-31T16:50:26.641Z,98244.00
2019-03-31T16:52:55.974Z,98249.00
2019-03-31T16:55:25.254Z,98246.00
2019-03-31T16:57:54.535Z,98252.00
2019-03-31T17:00:23.818Z,98253.00
2019-03-31T17:02:53.077Z,98247.00
2019-03-31T17:05:22.748Z,98247.00
2019-03-31T17:07:52.137Z,98252.00
2019-03-31T17:10:21.408Z,98252.00
2019-03-31T17:12:50.676Z,98256.00
2019-03-31T17:15:19.950Z,98255.00
2019-03-31T17:17:49.458Z,98252.00
2019-03-31T17:20:18.734Z,98256.00
2019-03-31T17:22:47.999Z,98255.00
2019-03-31T17:25:17.568Z,98251.00
2019-03-31T17:27:46.829Z,98254.00
2019-03-31T17:30:16.555Z,98256.00
2019-03-31T17:32:45.815Z,98251.00
2019-03-31T17:35:15.087Z,98255.00
2019-03-31T17:37:44.360Z,98254.00
2019-03-31T17:40:13.699Z,98262.00
2019-03-31T17:42:43.290Z,98255.00
2019-03-31T17:45:12.632Z,98260.00
2019-03-31T17:47:41.902Z,98254.00
2019-03-31T17:50:11.309Z,98264.00
2019-03-31T17:52:40.579Z,98262.00
2019-03-31T17:55:10.152Z,98263.00
2019-03-31T17:57:42.291Z,98261.00
2019-03-31T18:00:11.428Z,98262.00
2019-03-31T18:02:40.761Z,98267.00
2019-03-31T18:05:10.515Z,98263.00
2019-03-31T18:07:40.077Z,98273.00
2019-03-31T18:10:20.677Z,98271.00
2019-03-31T18:12:40.697Z,98274.00
2019-03-31T18:15:10.032Z,98281.00
2019-03-31T18:17:39.307Z,98274.00
2019-03-31T18:20:08.744Z,98290.00
2019-03-31T18:22:38.022Z,98299.00
2019-03-31T18:25:08.658Z,98288.00
2019-03-31T18:27:37.939Z,98295.00
2019-03-31T18:30:08.223Z,98301.00
2019-03-31T18:32:37.498Z,98299.00
2019-03-31T18:35:09.966Z,98306.00
2019-03-31T18:37:39.236Z,98311.00
2019-03-31T18:40:09.766Z,98310.00
2019-03-31T18:42:39.704Z,98316.00
2019-03-31T18:45:09.422Z,98314.00
2019-03-31T18:47:39.016Z,98321.00
2019-03-31T18:50:08.429Z,98324.00
2019-03-31T18:52:37.710Z,98329.00
2019-03-31T18:55:11.652Z,98330.00
2019-03-31T18:57:57.929Z,98337.00
2019-03-31T19:00:34.712Z,98330.00
2019-03-31T19:03:08.558Z,98333.00
2019-03-31T19:05:42.734Z,98343.00
2019-03-31T19:08:16.142Z,98336.00
2019-03-31T19:10:55.831Z,98338.00
2019-03-31T19:13:38.662Z,98346.00
2019-03-31T19:16:09.579Z,98341.00
2019-03-31T19:18:55.299Z,98337.00
2019-03-31T19:21:38.274Z,98347.00
2019-03-31T19:24:09.185Z,98349.00
2019-03-31T19:26:48.240Z,98355.00
2019-03-31T19:29:17.236Z,98360.00
2019-03-31T19:32:00.496Z,98359.00
2019-03-31T19:34:37.404Z,98365.00
2019-03-31T19:37:13.878Z,98371.00
2019-03-31T19:40:00.077Z,98375.00
2019-03-31T19:42:47.317Z,98366.00
2019-03-31T19:45:26.820Z,98374.00
2019-03-31T19:48:13.845Z,98370.00
2019-03-31T19:50:47.695Z,98373.00
2019-03-31T19:53:18.618Z,98371.00
2019-03-31T19:56:06.698Z,98374.00
2019-03-31T19:58:27.769Z,98372.00
2019-03-31T20:01:04.847Z,98375.00
2019-03-31T20:03:35.779Z,98375.00
2019-03-31T20:06:18.606Z,98383.00
2019-03-31T20:08:52.482Z,98380.00
2019-03-31T20:11:38.469Z,98387.00
2019-03-31T20:14:15.021Z,98383.00
2019-03-31T20:17:00.613Z,98389.00
2019-03-31T20:19:31.525Z,98391.00
2019-03-31T20:22:05.375Z,98402.00
2019-03-31T20:24:54.583Z,98407.00
2019-03-31T20:27:25.785Z,98416.00
2019-03-31T20:30:02.905Z,98423.00
2019-03-31T20:32:33.834Z,98416.00
2019-03-31T20:35:20.844Z,98426.00
2019-03-31T20:37:51.766Z,98433.00
2019-03-31T20:40:25.852Z,98424.00
2019-03-31T20:43:00.015Z,98420.00
2019-03-31T20:45:29.284Z,98417.00
2019-03-31T20:47:58.570Z,98416.00
2019-03-31T20:50:27.912Z,98423.00
2019-03-31T20:52:57.197Z,98423.00
2019-03-31T20:55:26.473Z,98430.00
2019-03-31T20:57:55.778Z,98429.00
2019-03-31T21:00:25.048Z,98427.00
2019-03-31T21:02:54.344Z,98432.00
2019-03-31T21:05:23.613Z,98435.00
2019-03-31T21:07:53.140Z,98426.00
2019-03-31T21:10:22.417Z,98435.00
2019-03-31T21:12:51.698Z,98429.00
2019-03-31T21:15:20.985Z,98433.00
2019-03-31T21:17:50.257Z,98440.00
2019-03-31T21:20:19.632Z,98438.00
2019-03-31T21:22:48.909Z,98433.00
2019-03-31T21:25:18.197Z,98439.00
2019-03-31T21:27:47.470Z,98437.00
2019-03-31T21:30:18.291Z,98440.00
2019-03-31T21:32:47.564Z,98439.00
2019-03-31T21:35:16.855Z,98446.00
2019-03-31T21:37:46.140Z,98451.00
2019-03-31T21:40:15.426Z,98447.00
2019-03-31T21:42:44.697Z,98448.00
2019-03-31T21:45:14.253Z,98443.00
2019-03-31T21:47:43.523Z,98449.00
2019-03-31T21:50:13.354Z,98456.00
2019-03-31T21:52:42.636Z,98462.00
2019-03-31T21:55:12.356Z,98458.00
2019-03-31T21:57:41.631Z,98455.00
2019-03-31T22:00:12.538Z,98462.00
2019-03-31T22:02:41.874Z,98459.00
2019-03-31T22:05:11.496Z,98462.00
2019-03-31T22:07:40.768Z,98463.00
2019-03-31T22:10:10.523Z,98462.00
2019-03-31T22:12:40.142Z,98458.00
2019-03-31T22:15:09.497Z,98453.00
2019-03-31T22:17:38.770Z,98457.00
2019-03-31T22:20:08.821Z,98446.00
2019-03-31T22:22:38.096Z,98452.00
2019-03-31T22:25:07.949Z,98453.00
2019-03-31T22:27:37.572Z,98446.00
2019-03-31T22:30:08.209Z,98445.00
2019-03-31T22:32:37.475Z,98453.00
2019-03-31T22:35:07.398Z,98448.00
2019-03-31T22:37:36.921Z,98455.00
2019-03-31T22:40:07.278Z,98456.00
2019-03-31T22:42:36.547Z,98450.00
2019-03-31T22:45:07.573Z,98456.00
2019-03-31T22:47:36.848Z,98450.00
2019-03-31T22:50:07.567Z,98442.00
2019-03-31T22:52:36.849Z,98444.00
2019-03-31T22:55:07.471Z,98450.00
2019-03-31T22:57:36.746Z,98446.00
2019-03-31T23:00:08.610Z,98451.00
2019-03-31T23:02:37.952Z,98445.00
2019-03-31T23:05:07.239Z,98434.00
2019-03-31T23:07:36.512Z,98440.00
2019-03-31T23:10:07.036Z,98439.00
2019-03-31T23:12:36.315Z,98443.00
2019-03-31T23:15:07.442Z,98449.00
2019-03-31T23:17:36.719Z,98445.00
2019-03-31T23:20:06.445Z,98443.00
2019-03-31T23:22:36.000Z,98443.00
2019-03-31T23:25:06.434Z,98443.00
2019-03-31T23:27:35.701Z,98448.00
2019-03-31T23:30:09.164Z,98446.00
2019-03-31T23:32:38.437Z,98461.00
2019-03-31T23:35:08.753Z,98449.00
2019-03-31T23:37:38.027Z,98448.00
2019-03-31T23:40:07.722Z,98445.00
2019-03-31T23:42:36.996Z,98446.00
2019-03-31T23:45:08.449Z,98446.00
2019-03-31T23:47:37.724Z,98444.00
2019-03-31T23:50:07.135Z,98443.00
2019-03-31T23:52:36.420Z,98437.00
2019-03-31T23:55:06.481Z,98442.00
2019-03-31T23:57:44.746Z,98444.00
